Time;durP1;ratioP1;P1;durP2;ratioP2;P2;SDS_P1;SDS_P2;PMS_P1;PMS_P2;Temp;Humidity;BMP_temperature;BMP_pressure;BME280_temperature;BME280_humidity;BME280_pressure;Samples;Min_cycle;Max_cycle;Signal;HPM_P1;HPM_P2
2022/03/28 00:00:14;;;;;;;15.23;13.63;;;4.60;99.90;;;;;;5040162;28;20373;-83
2022/03/28 00:02:41;;;;;;;16.65;13.00;;;3.90;99.90;;;;;;5040156;28;20886;-83
2022/03/28 00:05:08;;;;;;;17.13;13.30;;;3.90;99.90;;;;;;5040261;28;20376;-82
2022/03/28 00:07:34;;;;;;;15.35;13.63;;;2.50;99.90;;;;;;5041181;28;20457;-83
2022/03/28 00:09:59;;;;;;;20.25;13.73;;;4.20;99.90;;;;;;5040609;28;20875;-83
2022/03/28 00:12:25;;;;;;;16.52;13.25;;;4.00;99.90;;;;;;5042735;28;20438;-83
2022/03/28 00:14:51;;;;;;;16.63;12.98;;;4.10;99.90;;;;;;5042754;28;20798;-83
2022/03/28 00:17:17;;;;;;;19.23;13.38;;;3.80;99.90;;;;;;5040707;28;20435;-83
2022/03/28 00:19:42;;;;;;;18.80;13.70;;;3.70;99.90;;;;;;5040734;28;20808;-83
2022/03/28 00:22:08;;;;;;;16.97;13.10;;;3.70;99.90;;;;;;5043001;28;20859;-83
2022/03/28 00:24:34;;;;;;;19.00;14.20;;;3.90;99.90;;;;;;5042657;28;20490;-83
2022/03/28 00:27:00;;;;;;;17.63;13.67;;;3.70;99.90;;;;;;5046652;28;20470;-83
2022/03/28 00:29:25;;;;;;;17.57;14.10;;;3.80;99.90;;;;;;5045894;28;20469;-82
2022/03/28 00:31:51;;;;;;;16.73;13.50;;;4.00;99.90;;;;;;5044195;28;20476;-83
2022/03/28 00:34:21;;;;;;;18.33;14.55;;;3.70;99.90;;;;;;5045687;28;20400;-82
2022/03/28 00:36:51;;;;;;;18.80;14.88;;;3.70;99.90;;;;;;5042288;28;20407;-83
2022/03/28 00:39:19;;;;;;;17.40;14.13;;;3.90;99.90;;;;;;5075214;28;20513;-83
2022/03/28 00:41:48;;;;;;;16.65;14.50;;;3.70;99.90;;;;;;5045447;28;20381;-83
2022/03/28 00:44:14;;;;;;;16.60;13.52;;;3.30;99.90;;;;;;5043567;28;20370;-83
2022/03/28 00:46:40;;;;;;;17.02;13.23;;;3.50;99.90;;;;;;5046188;28;20759;-83
2022/03/28 00:49:06;;;;;;;16.23;13.82;;;4.00;99.90;;;;;;5044707;28;20415;-83
2022/03/28 00:51:32;;;;;;;17.23;13.63;;;3.60;99.90;;;;;;5043222;28;20380;-83
2022/03/28 00:53:59;;;;;;;17.17;13.07;;;2.80;99.90;;;;;;5041296;28;20738;-82
2022/03/28 00:56:28;;;;;;;16.02;13.80;;;3.20;99.90;;;;;;5041532;28;20432;-83
2022/03/28 00:58:54;;;;;;;15.85;13.80;;;3.50;99.90;;;;;;5047433;28;20393;-83
2022/03/28 01:01:20;;;;;;;17.58;14.10;;;3.50;99.90;;;;;;5039923;28;20431;-83
2022/03/28 01:03:46;;;;;;;14.77;13.05;;;3.60;99.90;;;;;;5041749;28;20762;-83
2022/03/28 01:06:12;;;;;;;16.13;14.23;;;3.50;99.90;;;;;;5044566;28;20414;-83
2022/03/28 01:08:38;;;;;;;16.15;13.68;;;3.90;99.90;;;;;;5043200;28;20720;-83
2022/03/28 01:11:06;;;;;;;16.55;13.77;;;3.40;99.90;;;;;;5043468;28;20953;-83
2022/03/28 01:13:34;;;;;;;15.55;13.95;;;3.30;99.90;;;;;;5044478;28;20413;-83
2022/03/28 01:16:00;;;;;;;16.35;13.68;;;3.30;99.90;;;;;;5042960;28;20397;-83
2022/03/28 01:18:26;;;;;;;15.57;13.57;;;3.30;99.90;;;;;;5043357;28;20396;-83
2022/03/28 01:20:59;;;;;;;16.13;13.88;;;3.30;99.90;;;;;;5043514;28;20430;-83
2022/03/28 01:23:25;;;;;;;18.65;14.35;;;3.20;99.90;;;;;;5042629;28;20382;-83
2022/03/28 01:25:52;;;;;;;18.97;14.70;;;3.20;99.90;;;;;;5041138;28;20810;-84
2022/03/28 01:28:20;;;;;;;17.27;14.80;;;3.30;99.90;;;;;;5044517;28;20438;-83
2022/03/28 01:30:46;;;;;;;17.60;13.52;;;3.30;99.90;;;;;;5043248;28;20373;-83
2022/03/28 01:33:12;;;;;;;17.08;13.38;;;3.20;99.90;;;;;;5041765;28;20388;-82
2022/03/28 01:35:40;;;;;;;15.15;13.43;;;3.20;99.90;;;;;;5041382;28;20447;-83
2022/03/28 01:38:09;;;;;;;19.13;14.30;;;3.20;99.90;;;;;;5042858;28;20855;-83
2022/03/28 01:40:37;;;;;;;18.27;14.43;;;3.10;99.90;;;;;;5043651;28;20463;-83
2022/03/28 01:43:03;;;;;;;18.65;14.60;;;3.10;99.90;;;;;;5043018;28;20460;-83
2022/03/28 01:45:29;;;;;;;16.13;13.75;;;3.20;99.90;;;;;;5040754;28;20845;-83
2022/03/28 01:47:54;;;;;;;22.90;14.60;;;3.00;99.90;;;;;;5044001;28;20402;-83
2022/03/28 01:50:21;;;;;;;24.37;14.43;;;3.00;99.90;;;;;;5040109;28;20429;-82
2022/03/28 01:52:47;;;;;;;21.10;14.23;;;3.00;99.90;;;;;;5042062;28;20463;-83
2022/03/28 01:55:14;;;;;;;23.83;15.35;;;3.70;99.90;;;;;;5041078;28;20441;-83
2022/03/28 01:57:41;;;;;;;18.90;13.95;;;2.90;99.90;;;;;;5040892;28;20389;-82
2022/03/28 02:00:14;;;;;;;24.90;14.90;;;2.70;99.90;;;;;;5042594;28;20505;-83
2022/03/28 02:02:41;;;;;;;16.83;13.90;;;2.90;99.90;;;;;;5043997;28;20547;-83
2022/03/28 02:05:13;;;;;;;21.20;15.07;;;2.90;99.90;;;;;;5042054;28;20380;-83
2022/03/28 02:07:41;;;;;;;19.40;14.48;;;2.90;99.90;;;;;;5043603;28;20376;-83
2022/03/28 02:10:08;;;;;;;22.00;14.00;;;2.90;99.90;;;;;;5048760;28;20401;-82
2022/03/28 02:12:34;;;;;;;22.60;13.98;;;2.80;99.90;;;;;;5041323;28;20872;-83
2022/03/28 02:15:00;;;;;;;24.60;14.35;;;2.80;99.90;;;;;;5042686;28;20391;-83
2022/03/28 02:17:25;;;;;;;21.60;14.13;;;2.80;99.90;;;;;;5041686;28;20385;-83
2022/03/28 02:19:51;;;;;;;20.33;14.07;;;2.80;99.90;;;;;;5040958;28;20380;-82
2022/03/28 02:22:16;;;;;;;19.42;14.07;;;2.70;99.90;;;;;;5042388;28;20742;-83
2022/03/28 02:24:42;;;;;;;20.67;13.82;;;2.70;99.90;;;;;;5042340;28;20396;-83
2022/03/28 02:27:08;;;;;;;18.97;13.57;;;2.70;99.90;;;;;;5042231;28;20383;-83
2022/03/28 02:29:33;;;;;;;17.73;13.87;;;2.80;99.90;;;;;;5043988;28;20385;-83
2022/03/28 02:32:00;;;;;;;17.27;13.77;;;2.70;99.90;;;;;;5041902;28;20378;-83
2022/03/28 02:34:25;;;;;;;16.83;13.13;;;2.60;99.90;;;;;;5041162;28;20742;-83
2022/03/28 02:36:51;;;;;;;18.30;13.17;;;2.60;99.90;;;;;;5044412;28;20402;-82
2022/03/28 02:39:16;;;;;;;19.90;13.17;;;2.60;99.90;;;;;;5042687;28;20458;-83
2022/03/28 02:41:42;;;;;;;17.17;13.57;;;2.60;99.90;;;;;;5045022;28;20404;-82
2022/03/28 02:44:08;;;;;;;17.15;13.40;;;2.60;99.90;;;;;;5043106;28;20386;-83
2022/03/28 02:46:33;;;;;;;16.70;13.27;;;2.80;99.90;;;;;;5041810;28;20439;-82
2022/03/28 02:48:59;;;;;;;17.60;13.20;;;2.30;99.90;;;;;;5041673;28;20383;-83
2022/03/28 02:51:24;;;;;;;19.52;14.48;;;2.80;99.90;;;;;;5041784;28;20389;-82
2022/03/28 02:53:50;;;;;;;17.17;13.98;;;2.40;99.90;;;;;;5041422;28;20379;-82
2022/03/28 02:56:16;;;;;;;18.80;14.17;;;2.40;99.90;;;;;;5042223;28;20403;-83
2022/03/28 02:58:41;;;;;;;16.53;13.40;;;2.40;99.90;;;;;;5040820;28;20387;-82
2022/03/28 03:01:07;;;;;;;18.00;13.70;;;2.30;99.90;;;;;;5042238;28;20427;-82
2022/03/28 03:03:32;;;;;;;17.20;12.73;;;2.60;99.90;;;;;;5042351;28;20389;-83
2022/03/28 03:05:58;;;;;;;16.85;13.30;;;2.50;99.90;;;;;;5040856;28;20390;-82
2022/03/28 03:08:24;;;;;;;16.48;13.20;;;2.80;99.90;;;;;;5040219;28;20406;-82
2022/03/28 03:10:49;;;;;;;18.70;14.33;;;2.40;99.90;;;;;;5042171;28;20384;-82
2022/03/28 03:13:15;;;;;;;17.60;14.00;;;2.20;99.90;;;;;;5040496;28;20381;-83
2022/03/28 03:15:40;;;;;;;18.92;14.30;;;2.20;99.90;;;;;;5042051;28;20952;-82
2022/03/28 03:18:06;;;;;;;20.73;14.82;;;2.50;99.90;;;;;;5040884;28;20385;-83
2022/03/28 03:20:33;;;;;;;23.08;15.95;;;2.20;99.90;;;;;;5042468;28;20487;-82
2022/03/28 03:23:02;;;;;;;19.77;14.25;;;2.50;99.90;;;;;;5042217;28;20415;-82
2022/03/28 03:25:27;;;;;;;21.25;15.73;;;2.40;99.90;;;;;;5040585;28;20479;-82
2022/03/28 03:27:53;;;;;;;30.47;15.83;;;2.30;99.90;;;;;;5040764;28;20372;-82
2022/03/28 03:30:20;;;;;;;21.47;14.60;;;2.00;99.90;;;;;;5041412;28;20391;-82
2022/03/28 03:32:46;;;;;;;20.95;15.07;;;2.30;99.90;;;;;;5044457;28;20450;-82
2022/03/28 03:35:12;;;;;;;21.65;16.30;;;2.20;99.90;;;;;;5045512;28;21746;-82
2022/03/28 03:37:39;;;;;;;23.27;17.25;;;2.10;99.90;;;;;;5042710;28;20395;-82
2022/03/28 03:40:07;;;;;;;24.55;17.30;;;2.10;99.90;;;;;;5040340;28;20876;-82
2022/03/28 03:42:32;;;;;;;23.48;16.70;;;2.10;99.90;;;;;;5039508;28;20384;-82
2022/03/28 03:44:58;;;;;;;23.83;17.20;;;2.10;99.90;;;;;;5040822;28;20392;-82
2022/03/28 03:47:24;;;;;;;25.55;16.77;;;2.10;99.90;;;;;;5038850;28;20381;-82
2022/03/28 03:49:50;;;;;;;31.92;17.23;;;2.10;99.90;;;;;;5040955;28;20730;-82
2022/03/28 03:52:17;;;;;;;30.13;16.77;;;2.10;99.90;;;;;;5042340;28;20834;-82
2022/03/28 03:54:42;;;;;;;29.05;16.80;;;2.10;99.90;;;;;;5038548;28;20374;-82
2022/03/28 03:57:08;;;;;;;35.33;17.48;;;2.10;99.90;;;;;;5039921;28;20379;-82
2022/03/28 03:59:34;;;;;;;28.08;17.92;;;2.00;99.90;;;;;;5041570;28;20384;-82
2022/03/28 04:02:00;;;;;;;31.50;16.65;;;2.10;99.90;;;;;;5040649;28;20385;-82
2022/03/28 04:04:26;;;;;;;34.80;17.50;;;2.10;99.90;;;;;;5042494;28;20367;-82
2022/03/28 04:06:51;;;;;;;40.50;17.60;;;2.10;99.90;;;;;;5040473;28;20914;-82
2022/03/28 04:09:17;;;;;;;34.97;17.58;;;2.10;99.90;;;;;;5042858;28;20375;-82
2022/03/28 04:11:43;;;;;;;34.03;17.70;;;2.10;99.90;;;;;;5042885;28;20372;-82
2022/03/28 04:14:09;;;;;;;31.90;15.65;;;2.10;99.90;;;;;;5041335;28;20427;-82
2022/03/28 04:16:35;;;;;;;27.20;16.17;;;2.00;99.90;;;;;;5039351;28;20464;-81
2022/03/28 04:19:00;;;;;;;23.73;15.65;;;2.00;99.90;;;;;;5040682;28;20415;-83
2022/03/28 04:21:26;;;;;;;27.00;16.02;;;2.00;99.90;;;;;;5043079;28;20388;-82
2022/03/28 04:23:52;;;;;;;25.52;16.50;;;2.00;99.90;;;;;;5043788;28;20387;-82
2022/03/28 04:26:18;;;;;;;24.17;15.70;;;2.10;99.90;;;;;;5041565;28;20382;-82
2022/03/28 04:28:43;;;;;;;28.35;16.95;;;2.10;99.90;;;;;;5041038;28;20417;-82
2022/03/28 04:31:10;;;;;;;26.83;16.48;;;2.20;99.90;;;;;;5043366;28;20469;-83
2022/03/28 04:33:37;;;;;;;28.83;16.83;;;2.30;99.90;;;;;;5041457;28;20400;-83
2022/03/28 04:36:03;;;;;;;30.27;17.58;;;2.40;99.90;;;;;;5040691;28;20410;-82
2022/03/28 04:38:29;;;;;;;28.25;16.80;;;2.40;99.90;;;;;;5042634;28;20376;-82
2022/03/28 04:40:54;;;;;;;31.73;18.15;;;2.50;99.90;;;;;;5040415;28;20886;-82
2022/03/28 04:43:22;;;;;;;30.02;16.58;;;2.50;99.90;;;;;;5039949;28;20851;-83
2022/03/28 04:45:48;;;;;;;26.73;17.52;;;2.50;99.90;;;;;;5041589;28;20364;-82
2022/03/28 04:48:14;;;;;;;69.57;21.92;;;2.50;99.90;;;;;;5039496;28;20526;-83
2022/03/28 04:50:40;;;;;;;48.77;19.27;;;2.50;99.90;;;;;;5040768;28;20381;-82
2022/03/28 04:53:06;;;;;;;37.87;18.47;;;2.60;99.90;;;;;;5048739;28;20360;-83
2022/03/28 04:55:32;;;;;;;30.63;17.23;;;2.60;99.90;;;;;;5043539;28;20405;-82
2022/03/28 04:57:58;;;;;;;73.53;21.80;;;2.60;99.90;;;;;;5038495;28;20480;-84
2022/03/28 05:00:24;;;;;;;33.38;17.42;;;2.60;99.90;;;;;;5042276;28;20387;-83
2022/03/28 05:02:50;;;;;;;42.27;17.90;;;2.60;99.90;;;;;;5039095;28;20374;-83
2022/03/28 05:05:15;;;;;;;27.50;17.13;;;2.60;99.90;;;;;;5038995;28;20376;-82
2022/03/28 05:07:41;;;;;;;28.07;17.43;;;2.50;99.90;;;;;;5040698;28;20392;-83
2022/03/28 05:10:08;;;;;;;32.55;19.42;;;2.60;99.90;;;;;;5040842;28;20918;-83
2022/03/28 05:12:34;;;;;;;34.10;21.33;;;2.70;99.90;;;;;;5041376;28;21004;-82
2022/03/28 05:15:00;;;;;;;27.10;17.13;;;2.70;99.90;;;;;;5042515;28;21886;-82
2022/03/28 05:17:28;;;;;;;27.48;17.58;;;2.90;99.90;;;;;;5042081;28;20475;-83
2022/03/28 05:19:56;;;;;;;25.55;17.13;;;2.90;99.90;;;;;;5042491;28;20375;-82
2022/03/28 05:22:23;;;;;;;28.27;16.48;;;3.50;99.90;;;;;;5042287;28;20395;-83
2022/03/28 05:24:51;;;;;;;22.92;15.32;;;2.70;99.90;;;;;;5042369;28;20377;-83
2022/03/28 05:27:17;;;;;;;24.38;15.95;;;2.80;99.90;;;;;;5042513;28;20372;-83
2022/03/28 05:29:43;;;;;;;32.47;18.95;;;2.70;99.90;;;;;;5047754;28;20925;-83
2022/03/28 05:32:10;;;;;;;32.05;17.58;;;2.70;99.90;;;;;;5042501;28;20389;-82
2022/03/28 05:34:36;;;;;;;31.73;18.08;;;2.70;99.90;;;;;;5043373;28;20415;-83
2022/03/28 05:37:05;;;;;;;37.53;18.33;;;2.70;99.90;;;;;;5040622;28;20426;-82
2022/03/28 05:39:32;;;;;;;40.95;19.67;;;2.80;99.90;;;;;;5042558;28;20394;-83
2022/03/28 05:41:59;;;;;;;32.45;18.42;;;3.20;99.90;;;;;;5042558;28;20439;-83
2022/03/28 05:44:25;;;;;;;41.08;18.83;;;2.90;99.90;;;;;;5045651;28;20404;-83
2022/03/28 05:46:51;;;;;;;31.65;17.30;;;3.20;99.90;;;;;;5042417;28;20882;-84
2022/03/28 05:49:19;;;;;;;45.65;18.25;;;3.80;99.90;;;;;;5042691;28;20410;-83
2022/03/28 05:51:45;;;;;;;37.20;15.95;;;3.60;99.90;;;;;;5039289;28;20407;-82
2022/03/28 05:54:12;;;;;;;73.43;19.83;;;3.80;99.90;;;;;;5041170;28;20939;-83
2022/03/28 05:56:38;;;;;;;78.45;19.35;;;3.90;99.90;;;;;;5039618;28;20410;-82
2022/03/28 05:59:07;;;;;;;51.17;16.77;;;4.60;99.90;;;;;;5043430;28;20787;-83
2022/03/28 06:01:34;;;;;;;28.30;13.93;;;5.10;99.90;;;;;;5040399;28;20385;-83
2022/03/28 06:04:00;;;;;;;26.95;13.95;;;5.40;99.90;;;;;;5040159;28;20384;-83
2022/03/28 06:06:26;;;;;;;25.27;15.02;;;5.40;99.90;;;;;;5040383;28;21031;-81
2022/03/28 06:08:52;;;;;;;28.40;19.98;;;5.70;99.90;;;;;;5042235;28;20535;-83
2022/03/28 06:11:18;;;;;;;26.67;16.80;;;6.00;99.90;;;;;;5047957;28;20371;-83
2022/03/28 06:13:44;;;;;;;21.98;14.90;;;6.10;99.90;;;;;;5048956;28;20734;-83
2022/03/28 06:16:10;;;;;;;20.37;12.97;;;6.30;99.90;;;;;;5048901;28;20397;-83
2022/03/28 06:18:35;;;;;;;22.47;13.47;;;6.50;99.90;;;;;;5048522;28;20426;-83
2022/03/28 06:21:01;;;;;;;22.50;13.25;;;6.60;99.90;;;;;;5047963;28;20392;-83
2022/03/28 06:23:26;;;;;;;20.27;14.00;;;6.70;99.90;;;;;;5046626;28;20414;-82
2022/03/28 06:25:52;;;;;;;22.33;14.23;;;6.70;99.90;;;;;;5043627;28;20916;-83
2022/03/28 06:28:18;;;;;;;22.52;14.27;;;6.70;99.90;;;;;;5045715;28;20377;-83
2022/03/28 06:30:44;;;;;;;23.40;14.88;;;6.70;99.90;;;;;;5044092;28;20982;-83
2022/03/28 06:33:10;;;;;;;25.23;14.20;;;6.70;99.90;;;;;;5044406;28;20382;-83
2022/03/28 06:35:36;;;;;;;27.58;15.23;;;6.70;99.90;;;;;;5052665;28;20418;-82
2022/03/28 06:38:02;;;;;;;23.38;14.57;;;6.70;99.90;;;;;;5043454;28;20380;-83
2022/03/28 06:40:28;;;;;;;25.60;15.97;;;6.70;99.90;;;;;;5046905;28;20410;-83
2022/03/28 06:42:53;;;;;;;20.60;14.57;;;6.80;99.90;;;;;;5046882;28;20384;-83
2022/03/28 06:45:20;;;;;;;23.98;15.65;;;7.00;99.90;;;;;;5048082;28;20385;-83
2022/03/28 06:47:50;;;;;;;24.75;16.98;;;7.20;99.90;;;;;;5041328;28;20447;-83
2022/03/28 06:50:17;;;;;;;27.40;18.48;;;7.40;99.90;;;;;;5047166;28;20381;-83
2022/03/28 06:52:42;;;;;;;26.08;19.23;;;7.40;99.90;;;;;;5043175;28;20429;-82
2022/03/28 06:55:08;;;;;;;26.65;19.02;;;7.30;99.90;;;;;;5043274;28;20440;-83
2022/03/28 06:57:34;;;;;;;26.08;19.02;;;7.30;99.90;;;;;;5047165;28;20429;-82
2022/03/28 06:59:59;;;;;;;26.33;19.27;;;7.40;99.90;;;;;;5042111;28;20506;-83
2022/03/28 07:02:25;;;;;;;26.13;18.47;;;7.50;99.90;;;;;;5040647;28;20389;-82
2022/03/28 07:04:50;;;;;;;25.92;18.45;;;7.70;99.90;;;;;;5042573;28;21251;-82
2022/03/28 07:07:16;;;;;;;31.38;20.48;;;7.70;99.90;;;;;;5040444;28;20374;-82
2022/03/28 07:09:41;;;;;;;28.00;20.47;;;7.60;99.90;;;;;;5042111;28;20387;-82
2022/03/28 07:12:09;;;;;;;30.00;22.45;;;7.50;99.90;;;;;;5040024;28;21065;-82
2022/03/28 07:14:35;;;;;;;30.60;21.77;;;7.30;99.90;;;;;;5038888;28;20396;-82
2022/03/28 07:17:01;;;;;;;32.73;22.03;;;7.10;99.90;;;;;;5040228;28;20412;-82
2022/03/28 07:19:27;;;;;;;28.05;20.70;;;7.10;99.90;;;;;;5039844;28;20880;-83
2022/03/28 07:21:53;;;;;;;34.95;22.17;;;7.20;99.90;;;;;;5039240;28;20411;-82
2022/03/28 07:24:20;;;;;;;32.80;21.83;;;7.10;99.90;;;;;;5039827;28;20384;-83
2022/03/28 07:26:48;;;;;;;34.13;23.67;;;6.90;99.90;;;;;;5046176;28;20389;-83
2022/03/28 07:29:15;;;;;;;31.00;23.15;;;6.70;99.90;;;;;;5040028;28;20486;-82
2022/03/28 07:31:41;;;;;;;31.75;22.13;;;6.60;99.90;;;;;;5041538;28;20385;-81
2022/03/28 07:36:54;;;;;;;31.90;22.67;;;6.70;99.90;;;;;;5040972;28;20759;-83
2022/03/28 07:39:22;;;;;;;31.30;23.17;;;6.80;99.90;;;;;;5039172;28;20874;-82
2022/03/28 07:41:49;;;;;;;30.98;22.38;;;6.80;99.90;;;;;;5040966;28;20372;-82
2022/03/28 07:44:15;;;;;;;31.83;22.57;;;6.90;99.90;;;;;;5039789;28;20471;-82
2022/03/28 07:46:43;;;;;;;35.85;21.08;;;6.90;99.90;;;;;;5039252;28;20379;-83
2022/03/28 07:49:09;;;;;;;31.55;20.25;;;7.30;99.90;;;;;;5041215;28;21183;-84
2022/03/28 07:51:35;;;;;;;28.07;20.30;;;7.60;99.90;;;;;;5040247;28;20443;-82
2022/03/28 07:54:01;;;;;;;27.63;19.40;;;7.80;99.90;;;;;;5040438;28;20877;-82
2022/03/28 07:56:27;;;;;;;26.80;18.70;;;7.90;99.90;;;;;;5040788;28;20905;-82
2022/03/28 07:58:53;;;;;;;33.83;22.00;;;8.10;99.90;;;;;;5039459;28;20370;-82
2022/03/28 08:01:18;;;;;;;28.67;20.58;;;7.70;99.90;;;;;;5040527;28;20429;-82
2022/03/28 08:03:44;;;;;;;26.50;20.77;;;7.70;99.90;;;;;;5041282;28;20444;-84
2022/03/28 08:06:10;;;;;;;31.63;21.30;;;7.60;99.90;;;;;;5039617;28;20377;-83
2022/03/28 08:08:36;;;;;;;29.02;20.33;;;7.50;99.90;;;;;;5040813;28;20423;-82
2022/03/28 08:11:03;;;;;;;26.65;20.17;;;7.90;99.90;;;;;;5046188;28;20394;-83
2022/03/28 08:13:29;;;;;;;29.73;21.08;;;8.00;99.90;;;;;;5045716;28;20372;-82
2022/03/28 08:15:55;;;;;;;28.93;20.13;;;8.20;99.90;;;;;;5039943;28;20914;-83
2022/03/28 08:18:20;;;;;;;34.25;22.02;;;8.40;99.90;;;;;;5039745;28;20394;-85
2022/03/28 08:20:46;;;;;;;32.20;22.23;;;8.40;99.90;;;;;;5041901;28;20372;-82
2022/03/28 08:23:15;;;;;;;30.67;20.63;;;;;;;;;;5038143;28;20493;-81
2022/03/28 08:25:42;;;;;;;29.40;19.90;;;8.70;99.90;;;;;;5040886;28;20414;-82
2022/03/28 08:28:08;;;;;;;27.70;20.30;;;9.20;99.90;;;;;;5040600;28;20395;-82
2022/03/28 08:30:35;;;;;;;29.83;20.38;;;9.30;99.90;;;;;;5039043;28;20377;-82
2022/03/28 08:33:01;;;;;;;27.52;20.25;;;9.50;99.90;;;;;;5022981;28;20878;-81
2022/03/28 08:35:27;;;;;;;26.17;18.80;;;9.30;99.90;;;;;;5041492;28;20450;-82
2022/03/28 08:37:53;;;;;;;21.43;17.03;;;9.70;99.90;;;;;;5038314;28;20401;-81
2022/03/28 08:40:19;;;;;;;22.23;17.67;;;10.10;99.90;;;;;;5038325;28;20753;-82
2022/03/28 08:42:46;;;;;;;23.33;17.87;;;10.20;99.90;;;;;;5040637;28;20380;-82
2022/03/28 08:45:14;;;;;;;24.85;17.85;;;10.30;99.90;;;;;;5039260;28;20390;-82
2022/03/28 08:47:42;;;;;;;24.15;18.60;;;10.70;99.90;;;;;;5046093;28;20960;-82
2022/03/28 08:50:10;;;;;;;24.42;19.77;;;10.70;99.90;;;;;;5047224;28;20409;-82
2022/03/28 08:52:40;;;;;;;27.83;21.23;;;10.30;99.90;;;;;;5046155;28;20455;-83
2022/03/28 08:55:07;;;;;;;25.58;19.77;;;9.50;99.90;;;;;;5041441;28;20399;-81
2022/03/28 08:57:32;;;;;;;26.38;18.70;;;9.30;99.90;;;;;;5045427;28;20392;-81
2022/03/28 09:00:02;;;;;;;25.87;18.70;;;9.30;99.90;;;;;;5043122;28;20467;-81
2022/03/28 09:02:45;;;;;;;25.05;18.75;;;9.30;99.90;;;;;;5043867;28;20415;-82
2022/03/28 09:05:12;;;;;;;23.17;18.58;;;9.30;99.90;;;;;;5040530;28;20724;-82
2022/03/28 09:07:37;;;;;;;23.38;18.00;;;9.50;99.90;;;;;;5046723;28;20464;-81
2022/03/28 09:10:06;;;;;;;29.80;18.90;;;9.70;99.90;;;;;;5046683;28;20435;-81
2022/03/28 09:12:39;;;;;;;24.40;18.30;;;9.90;99.90;;;;;;5051954;28;20403;-82
2022/03/28 09:15:14;;;;;;;19.63;16.67;;;10.10;99.90;;;;;;5053901;28;20451;-82
2022/03/28 09:17:40;;;;;;;19.65;17.08;;;10.30;99.90;;;;;;5046827;28;20408;-81
2022/03/28 09:20:06;;;;;;;19.93;16.37;;;10.00;99.90;;;;;;5042673;28;20753;-82
2022/03/28 09:22:37;;;;;;;18.60;15.98;;;10.00;99.90;;;;;;5044509;28;20380;-82
2022/03/28 09:25:10;;;;;;;18.88;16.25;;;10.30;99.90;;;;;;5042464;28;20410;-82
2022/03/28 09:27:39;;;;;;;20.85;16.95;;;10.00;99.90;;;;;;5044303;28;20388;-82
2022/03/28 09:30:10;;;;;;;18.27;16.15;;;9.70;99.90;;;;;;5042943;28;20405;-82
2022/03/28 09:32:46;;;;;;;20.67;16.80;;;9.70;99.90;;;;;;5044163;28;20385;-81
2022/03/28 09:35:21;;;;;;;21.20;17.40;;;9.90;99.90;;;;;;5041957;28;20393;-83
2022/03/28 09:37:49;;;;;;;19.93;15.93;;;10.10;99.90;;;;;;5042551;28;20385;-84
2022/03/28 09:40:35;;;;;;;18.80;16.33;;;10.60;99.90;;;;;;5043202;28;20429;-82
2022/03/28 09:43:21;;;;;;;19.35;16.77;;;10.70;99.90;;;;;;5042928;28;20403;-81
2022/03/28 09:45:53;;;;;;;17.60;15.68;;;10.60;99.90;;;;;;5044578;28;20397;-82
2022/03/28 09:48:21;;;;;;;18.10;15.07;;;10.90;99.90;;;;;;5043446;28;20384;-84
2022/03/28 09:50:57;;;;;;;22.15;15.25;;;10.90;99.90;;;;;;5041548;28;20388;-83
2022/03/28 09:53:31;;;;;;;16.67;14.55;;;10.70;99.90;;;;;;5045143;28;20400;-82
2022/03/28 09:56:09;;;;;;;16.85;14.30;;;10.50;99.90;;;;;;5042198;28;20444;-83
2022/03/28 09:59:04;;;;;;;16.48;14.05;;;10.60;99.90;;;;;;5041688;28;20527;-83
2022/03/28 10:01:40;;;;;;;15.55;13.80;;;10.70;99.90;;;;;;5042120;28;20411;-83
2022/03/28 10:04:08;;;;;;;14.55;12.98;;;11.00;99.90;;;;;;5043522;28;20439;-83
2022/03/28 10:06:36;;;;;;;18.27;13.07;;;11.20;99.90;;;;;;5039816;28;20385;-83
2022/03/28 10:09:03;;;;;;;14.70;13.00;;;11.70;99.90;;;;;;5042619;28;20431;-82
2022/03/28 10:11:30;;;;;;;17.33;13.55;;;11.90;99.90;;;;;;5041848;28;20393;-82
2022/03/28 10:13:56;;;;;;;16.08;13.30;;;12.00;99.90;;;;;;5042944;28;20872;-82
2022/03/28 10:16:22;;;;;;;15.90;12.18;;;11.90;99.90;;;;;;5041516;28;20410;-83
2022/03/28 10:18:50;;;;;;;14.32;12.85;;;12.10;99.90;;;;;;5041547;28;20388;-82
2022/03/28 10:21:43;;;;;;;15.77;12.25;;;12.40;99.90;;;;;;5042620;28;20993;-82
2022/03/28 10:24:13;;;;;;;14.23;12.73;;;12.60;99.90;;;;;;5045692;28;20505;-82
2022/03/28 10:26:44;;;;;;;15.73;12.75;;;12.60;99.90;;;;;;5041268;28;20473;-82
2022/03/28 10:29:13;;;;;;;14.38;12.88;;;12.60;99.90;;;;;;5041381;28;20410;-82
2022/03/28 10:32:02;;;;;;;16.02;13.45;;;12.70;99.90;;;;;;5041872;28;20750;-81
2022/03/28 10:34:55;;;;;;;17.15;12.38;;;12.30;99.90;;;;;;5043410;28;20380;-82
2022/03/28 10:37:40;;;;;;;14.55;13.00;;;12.60;99.90;;;;;;5041083;28;20462;-82
2022/03/28 10:40:12;;;;;;;16.20;12.70;;;12.70;99.90;;;;;;5041900;28;20412;-82
2022/03/28 10:42:44;;;;;;;18.43;13.23;;;12.80;99.90;;;;;;5040363;28;20921;-82
2022/03/28 10:45:10;;;;;;;15.00;12.18;;;12.80;99.90;;;;;;5039119;28;20385;-83
2022/03/28 10:47:56;;;;;;;15.20;12.85;;;13.00;99.90;;;;;;5040379;28;20713;-83
2022/03/28 10:50:49;;;;;;;14.18;12.68;;;13.30;99.90;;;;;;5039369;28;20408;-82
2022/03/28 10:53:19;;;;;;;14.55;12.75;;;13.60;99.90;;;;;;5042230;28;20392;-82
2022/03/28 10:55:53;;;;;;;15.00;11.80;;;13.50;99.90;;;;;;5040013;28;20413;-82
2022/03/28 10:58:25;;;;;;;18.70;12.82;;;13.60;99.90;;;;;;5040719;28;20472;-82
2022/03/28 11:01:06;;;;;;;15.23;12.88;;;13.50;99.90;;;;;;5038045;28;20386;-82
2022/03/28 11:03:46;;;;;;;17.50;12.70;;;13.60;99.90;;;;;;5038983;28;20380;-82
2022/03/28 11:06:17;;;;;;;15.07;13.00;;;13.60;99.90;;;;;;5042463;28;20407;-84
2022/03/28 11:09:03;;;;;;;14.77;12.85;;;13.90;99.90;;;;;;5045391;28;20398;-84
2022/03/28 11:11:32;;;;;;;15.48;12.40;;;13.90;99.90;;;;;;5050053;28;20390;-82
2022/03/28 11:14:11;;;;;;;14.90;12.25;;;13.90;99.90;;;;;;5043674;28;20401;-82
2022/03/28 11:16:40;;;;;;;16.05;13.00;;;;;;;;;;5070878;28;20412;-83
2022/03/28 11:19:29;;;;;;;17.20;13.90;;;;;;;;;;5039123;28;20982;-83
2022/03/28 11:21:56;;;;;;;21.05;13.40;;;;;;;;;;5040929;28;20375;-83
2022/03/28 11:25:01;;;;;;;15.95;13.52;;;;;;;;;;5039214;28;20449;-83
2022/03/28 11:27:31;;;;;;;15.10;12.95;;;;;;;;;;5017791;28;20963;-83
2022/03/28 11:30:12;;;;;;;14.40;12.40;;;;;;;;;;5003382;28;20393;-84
2022/03/28 11:32:38;;;;;;;15.50;13.80;;;;;;;;;;5030585;28;20895;-82
2022/03/28 11:35:05;;;;;;;16.08;14.07;;;;;;;;;;5040836;28;20893;-84
2022/03/28 11:37:33;;;;;;;15.50;13.75;;;;;;;;;;5043922;28;22117;-83
2022/03/28 11:40:09;;;;;;;20.50;14.43;;;13.80;99.90;;;;;;5038903;28;20390;-82
2022/03/28 11:42:36;;;;;;;16.03;13.13;;;13.80;99.90;;;;;;5039280;28;20384;-83
2022/03/28 11:45:11;;;;;;;16.23;14.40;;;13.70;99.90;;;;;;5041370;28;20372;-83
2022/03/28 11:47:39;;;;;;;15.65;13.77;;;13.70;99.90;;;;;;5040271;28;20445;-83
2022/03/28 11:50:08;;;;;;;18.48;14.70;;;14.10;99.90;;;;;;5039062;28;20388;-83
2022/03/28 11:52:34;;;;;;;18.17;14.80;;;13.90;99.90;;;;;;5039614;28;20969;-83
2022/03/28 11:55:01;;;;;;;20.65;15.52;;;;;;;;;;5039411;28;20493;-84
2022/03/28 12:00:23;;;;;;;18.58;15.32;;;;;;;;;;5039576;28;20368;-84
2022/03/28 12:02:50;;;;;;;17.58;14.65;;;;;;;;;;5039002;28;20472;-84
2022/03/28 12:05:26;;;;;;;19.55;15.15;;;;;;;;;;5036805;28;20740;-84
2022/03/28 12:07:52;;;;;;;17.55;15.20;;;14.10;99.90;;;;;;5038489;28;20368;-83
2022/03/28 12:10:20;;;;;;;18.33;15.00;;;;;;;;;;5070592;28;20410;-83
2022/03/28 12:12:46;;;;;;;18.50;15.82;;;14.60;99.90;;;;;;5039339;28;20371;-82
2022/03/28 12:15:12;;;;;;;22.87;16.13;;;14.70;99.90;;;;;;5041834;28;20460;-82
2022/03/28 12:17:37;;;;;;;19.20;15.73;;;14.80;99.90;;;;;;5039780;28;20412;-85
2022/03/28 12:20:05;;;;;;;19.17;16.05;;;14.80;99.90;;;;;;5045235;28;20380;-83
2022/03/28 12:22:43;;;;;;;19.93;16.00;;;14.50;99.90;;;;;;5044400;28;20421;-83
2022/03/28 12:25:29;;;;;;;19.60;15.80;;;14.60;99.90;;;;;;5047071;28;20432;-82
2022/03/28 12:28:00;;;;;;;21.55;16.15;;;14.70;99.90;;;;;;5053412;28;20526;-83
2022/03/28 12:30:35;;;;;;;21.90;17.27;;;14.80;99.90;;;;;;5044992;28;20389;-83
2022/03/28 12:33:17;;;;;;;20.90;17.03;;;14.90;99.90;;;;;;5045238;28;20381;-83
2022/03/28 12:35:51;;;;;;;20.35;16.95;;;15.00;99.90;;;;;;5043608;28;20401;-83
2022/03/28 12:38:20;;;;;;;22.75;17.10;;;14.70;99.90;;;;;;5043576;28;20382;-83
2022/03/28 12:40:50;;;;;;;22.88;15.88;;;14.80;99.90;;;;;;5043334;28;20406;-83
2022/03/28 12:43:16;;;;;;;22.45;17.05;;;14.80;99.90;;;;;;5045843;28;20445;-84
2022/03/28 12:45:42;;;;;;;21.93;17.93;;;15.00;99.90;;;;;;5043103;28;20385;-82
2022/03/28 12:48:09;;;;;;;24.60;18.00;;;15.10;99.90;;;;;;5040918;28;20396;-85